sensor_id;sensor_type;location;lat;lon;timestamp;temperature;humidity
23335;DHT22;11839;48.598;8.870;2024-03-22T00:01:03;11.20;99.90
23335;DHT22;11839;48.598;8.870;2024-03-22T00:03:30;11.30;99.90
23335;DHT22;11839;48.598;8.870;2024-03-22T00:05:57;11.10;99.90
23335;DHT22;11839;48.598;8.870;2024-03-22T00:08:23;11.30;99.90
23335;DHT22;11839;48.598;8.870;2024-03-22T00:10:50;11.10;99.90
23335;DHT22;11839;48.598;8.870;2024-03-22T00:13:16;11.00;99.90
23335;DHT22;11839;48.598;8.870;2024-03-22T00:15:42;11.10;99.90
23335;DHT22;11839;48.598;8.870;2024-03-22T00:18:09;11.20;99.90
23335;DHT22;11839;48.598;8.870;2024-03-22T00:20:38;11.30;99.90
23335;DHT22;11839;48.598;8.870;2024-03-22T00:23:03;11.30;99.90
23335;DHT22;11839;48.598;8.870;2024-03-22T00:25:31;11.00;99.90
23335;DHT22;11839;48.598;8.870;2024-03-22T00:27:56;10.50;99.90
23335;DHT22;11839;48.598;8.870;2024-03-22T00:30:23;10.30;99.90
23335;DHT22;11839;48.598;8.870;2024-03-22T00:32:49;10.40;99.90
23335;DHT22;11839;48.598;8.870;2024-03-22T00:35:16;10.30;99.90
23335;DHT22;11839;48.598;8.870;2024-03-22T00:37:43;10.30;99.90
23335;DHT22;11839;48.598;8.870;2024-03-22T00:40:11;10.40;99.90
23335;DHT22;11839;48.598;8.870;2024-03-22T00:42:36;10.30;99.90
23335;DHT22;11839;48.598;8.870;2024-03-22T00:45:04;10.10;99.90
23335;DHT22;11839;48.598;8.870;2024-03-22T00:47:29;10.30;99.90
23335;DHT22;11839;48.598;8.870;2024-03-22T00:49:57;10.10;99.90
23335;DHT22;11839;48.598;8.870;2024-03-22T00:52:23;10.20;99.90
23335;DHT22;11839;48.598;8.870;2024-03-22T00:54:51;10.30;99.90
23335;DHT22;11839;48.598;8.870;2024-03-22T00:57:17;10.00;99.90
23335;DHT22;11839;48.598;8.870;2024-03-22T00:59:44;10.00;99.90
23335;DHT22;11839;48.598;8.870;2024-03-22T01:02:10;10.00;99.90
23335;DHT22;11839;48.598;8.870;2024-03-22T01:04:36;9.80;99.90
23335;DHT22;11839;48.598;8.870;2024-03-22T01:07:02;9.90;99.90
23335;DHT22;11839;48.598;8.870;2024-03-22T01:09:29;9.80;99.90
23335;DHT22;11839;48.598;8.870;2024-03-22T01:11:56;9.70;99.90
23335;DHT22;11839;48.598;8.870;2024-03-22T01:14:22;9.70;99.90
23335;DHT22;11839;48.598;8.870;2024-03-22T01:16:48;10.00;99.90
23335;DHT22;11839;48.598;8.870;2024-03-22T01:19:15;10.10;99.90
23335;DHT22;11839;48.598;8.870;2024-03-22T01:21:41;10.20;99.90
23335;DHT22;11839;48.598;8.870;2024-03-22T01:24:07;10.00;99.90
23335;DHT22;11839;48.598;8.870;2024-03-22T01:26:33;9.90;99.90
23335;DHT22;11839;48.598;8.870;2024-03-22T01:29:01;9.90;99.90
23335;DHT22;11839;48.598;8.870;2024-03-22T01:31:27;10.00;99.90
23335;DHT22;11839;48.598;8.870;2024-03-22T01:33:54;9.80;99.90
23335;DHT22;11839;48.598;8.870;2024-03-22T01:36:19;9.60;99.90
23335;DHT22;11839;48.598;8.870;2024-03-22T01:38:46;9.40;99.90
23335;DHT22;11839;48.598;8.870;2024-03-22T01:41:12;9.40;99.90
23335;DHT22;11839;48.598;8.870;2024-03-22T01:43:38;9.50;99.90
23335;DHT22;11839;48.598;8.870;2024-03-22T01:46:07;9.80;99.90
23335;DHT22;11839;48.598;8.870;2024-03-22T01:48:34;9.90;99.90
23335;DHT22;11839;48.598;8.870;2024-03-22T01:51:00;9.60;99.90
23335;DHT22;11839;48.598;8.870;2024-03-22T01:53:28;9.50;99.90
23335;DHT22;11839;48.598;8.870;2024-03-22T01:55:54;9.30;99.90
23335;DHT22;11839;48.598;8.870;2024-03-22T01:58:21;9.50;99.90
23335;DHT22;11839;48.598;8.870;2024-03-22T02:00:47;9.50;99.90
23335;DHT22;11839;48.598;8.870;2024-03-22T02:03:15;9.40;99.90
23335;DHT22;11839;48.598;8.870;2024-03-22T02:05:41;9.30;99.90
23335;DHT22;11839;48.598;8.870;2024-03-22T02:08:08;9.20;99.90
23335;DHT22;11839;48.598;8.870;2024-03-22T02:10:33;9.20;99.90
23335;DHT22;11839;48.598;8.870;2024-03-22T02:13:00;9.40;99.90
23335;DHT22;11839;48.598;8.870;2024-03-22T02:15:26;9.40;99.90
23335;DHT22;11839;48.598;8.870;2024-03-22T02:17:53;9.20;99.90
23335;DHT22;11839;48.598;8.870;2024-03-22T02:20:20;8.90;99.90
23335;DHT22;11839;48.598;8.870;2024-03-22T02:22:47;8.80;99.90
23335;DHT22;11839;48.598;8.870;2024-03-22T02:25:14;8.80;99.90
23335;DHT22;11839;48.598;8.870;2024-03-22T02:27:41;9.00;99.90
23335;DHT22;11839;48.598;8.870;2024-03-22T02:30:08;9.30;99.90
23335;DHT22;11839;48.598;8.870;2024-03-22T02:32:34;9.10;99.90
23335;DHT22;11839;48.598;8.870;2024-03-22T02:35:00;8.90;99.90
23335;DHT22;11839;48.598;8.870;2024-03-22T02:37:27;8.80;99.90
23335;DHT22;11839;48.598;8.870;2024-03-22T02:39:53;9.10;99.90
23335;DHT22;11839;48.598;8.870;2024-03-22T02:42:21;9.20;99.90
23335;DHT22;11839;48.598;8.870;2024-03-22T02:44:47;9.10;99.90
23335;DHT22;11839;48.598;8.870;2024-03-22T02:47:14;9.20;99.90
23335;DHT22;11839;48.598;8.870;2024-03-22T02:49:41;9.30;99.90
23335;DHT22;11839;48.598;8.870;2024-03-22T02:52:07;9.40;99.90
23335;DHT22;11839;48.598;8.870;2024-03-22T02:54:33;9.30;99.90
23335;DHT22;11839;48.598;8.870;2024-03-22T02:56:59;9.10;99.90
23335;DHT22;11839;48.598;8.870;2024-03-22T02:59:28;9.10;99.90
23335;DHT22;11839;48.598;8.870;2024-03-22T03:01:54;8.90;99.90
23335;DHT22;11839;48.598;8.870;2024-03-22T03:04:21;8.90;99.90
23335;DHT22;11839;48.598;8.870;2024-03-22T03:06:46;8.90;99.90
23335;DHT22;11839;48.598;8.870;2024-03-22T03:09:13;8.90;99.90
23335;DHT22;11839;48.598;8.870;2024-03-22T03:11:39;9.10;99.90
23335;DHT22;11839;48.598;8.870;2024-03-22T03:14:06;9.30;99.90
23335;DHT22;11839;48.598;8.870;2024-03-22T03:16:33;9.00;99.90
23335;DHT22;11839;48.598;8.870;2024-03-22T03:19:00;9.10;99.90
23335;DHT22;11839;48.598;8.870;2024-03-22T03:21:26;9.10;99.90
23335;DHT22;11839;48.598;8.870;2024-03-22T03:23:52;8.90;99.90
23335;DHT22;11839;48.598;8.870;2024-03-22T03:26:18;9.20;99.90
23335;DHT22;11839;48.598;8.870;2024-03-22T03:28:45;9.50;99.90
23335;DHT22;11839;48.598;8.870;2024-03-22T03:31:11;9.60;99.90
23335;DHT22;11839;48.598;8.870;2024-03-22T03:33:39;9.50;99.90
23335;DHT22;11839;48.598;8.870;2024-03-22T03:36:05;9.70;99.90
23335;DHT22;11839;48.598;8.870;2024-03-22T03:38:32;9.70;99.90
23335;DHT22;11839;48.598;8.870;2024-03-22T03:40:58;9.50;99.90
23335;DHT22;11839;48.598;8.870;2024-03-22T03:43:24;9.30;99.90
23335;DHT22;11839;48.598;8.870;2024-03-22T03:45:50;9.40;99.90
23335;DHT22;11839;48.598;8.870;2024-03-22T03:48:19;9.50;99.90
23335;DHT22;11839;48.598;8.870;2024-03-22T03:50:52;9.10;99.90
23335;DHT22;11839;48.598;8.870;2024-03-22T03:53:20;8.90;99.90
23335;DHT22;11839;48.598;8.870;2024-03-22T03:55:46;8.80;99.90
23335;DHT22;11839;48.598;8.870;2024-03-22T03:58:12;8.90;99.90
23335;DHT22;11839;48.598;8.870;2024-03-22T04:00:38;8.90;99.90
23335;DHT22;11839;48.598;8.870;2024-03-22T04:03:05;9.10;99.90
23335;DHT22;11839;48.598;8.870;2024-03-22T04:05:31;9.30;99.90
23335;DHT22;11839;48.598;8.870;2024-03-22T04:07:59;9.40;99.90
23335;DHT22;11839;48.598;8.870;2024-03-22T04:10:24;9.70;99.90
23335;DHT22;11839;48.598;8.870;2024-03-22T04:12:51;9.80;99.90
23335;DHT22;11839;48.598;8.870;2024-03-22T04:15:17;9.70;99.90
23335;DHT22;11839;48.598;8.870;2024-03-22T04:17:43;9.80;99.90
23335;DHT22;11839;48.598;8.870;2024-03-22T04:20:10;9.60;99.90
23335;DHT22;11839;48.598;8.870;2024-03-22T04:22:37;9.60;99.90
23335;DHT22;11839;48.598;8.870;2024-03-22T04:25:06;9.50;99.90
23335;DHT22;11839;48.598;8.870;2024-03-22T04:27:36;9.40;99.90
23335;DHT22;11839;48.598;8.870;2024-03-22T04:30:02;9.70;99.90
23335;DHT22;11839;48.598;8.870;2024-03-22T04:32:29;9.70;99.90
23335;DHT22;11839;48.598;8.870;2024-03-22T04:34:55;9.70;99.90
23335;DHT22;11839;48.598;8.870;2024-03-22T04:37:21;9.70;99.90
23335;DHT22;11839;48.598;8.870;2024-03-22T04:39:49;9.60;99.90
23335;DHT22;11839;48.598;8.870;2024-03-22T04:42:17;9.70;99.90
23335;DHT22;11839;48.598;8.870;2024-03-22T04:44:45;9.80;99.90
23335;DHT22;11839;48.598;8.870;2024-03-22T04:47:11;9.70;99.90
23335;DHT22;11839;48.598;8.870;2024-03-22T04:49:37;9.60;99.90
23335;DHT22;11839;48.598;8.870;2024-03-22T04:52:03;9.80;99.90
23335;DHT22;11839;48.598;8.870;2024-03-22T04:54:30;10.00;99.90
23335;DHT22;11839;48.598;8.870;2024-03-22T04:56:56;9.90;99.90
23335;DHT22;11839;48.598;8.870;2024-03-22T04:59:24;10.10;99.90
23335;DHT22;11839;48.598;8.870;2024-03-22T05:01:49;10.20;99.90
23335;DHT22;11839;48.598;8.870;2024-03-22T05:04:16;10.10;99.90
23335;DHT22;11839;48.598;8.870;2024-03-22T05:06:42;10.20;99.90
23335;DHT22;11839;48.598;8.870;2024-03-22T05:09:09;10.20;99.90
23335;DHT22;11839;48.598;8.870;2024-03-22T05:11:35;10.40;99.90
23335;DHT22;11839;48.598;8.870;2024-03-22T05:14:02;10.60;99.90
23335;DHT22;11839;48.598;8.870;2024-03-22T05:16:29;10.70;99.90
23335;DHT22;11839;48.598;8.870;2024-03-22T05:18:56;10.00;99.90
23335;DHT22;11839;48.598;8.870;2024-03-22T05:21:22;9.90;99.90
23335;DHT22;11839;48.598;8.870;2024-03-22T05:23:48;10.00;99.90
23335;DHT22;11839;48.598;8.870;2024-03-22T05:26:14;9.70;99.90
23335;DHT22;11839;48.598;8.870;2024-03-22T05:28:41;9.90;99.90
23335;DHT22;11839;48.598;8.870;2024-03-22T05:31:07;10.00;99.90
23335;DHT22;11839;48.598;8.870;2024-03-22T05:33:35;10.20;99.90
23335;DHT22;11839;48.598;8.870;2024-03-22T05:36:00;10.20;99.90
23335;DHT22;11839;48.598;8.870;2024-03-22T05:38:27;10.00;99.90
23335;DHT22;11839;48.598;8.870;2024-03-22T05:40:53;9.80;99.90
23335;DHT22;11839;48.598;8.870;2024-03-22T05:43:20;9.70;99.90
23335;DHT22;11839;48.598;8.870;2024-03-22T05:45:46;9.90;99.90
23335;DHT22;11839;48.598;8.870;2024-03-22T05:48:13;9.90;99.90
23335;DHT22;11839;48.598;8.870;2024-03-22T05:50:41;9.80;99.90
23335;DHT22;11839;48.598;8.870;2024-03-22T05:53:08;9.50;99.90
23335;DHT22;11839;48.598;8.870;2024-03-22T05:55:34;9.80;99.90
23335;DHT22;11839;48.598;8.870;2024-03-22T05:58:00;9.60;99.90
23335;DHT22;11839;48.598;8.870;2024-03-22T06:00:27;9.40;99.90
23335;DHT22;11839;48.598;8.870;2024-03-22T06:02:52;9.20;99.90
23335;DHT22;11839;48.598;8.870;2024-03-22T06:05:19;9.10;99.90
23335;DHT22;11839;48.598;8.870;2024-03-22T06:07:46;8.90;99.90
23335;DHT22;11839;48.598;8.870;2024-03-22T06:10:13;8.60;99.90
23335;DHT22;11839;48.598;8.870;2024-03-22T06:12:39;8.50;99.90
23335;DHT22;11839;48.598;8.870;2024-03-22T06:15:07;8.30;99.90
23335;DHT22;11839;48.598;8.870;2024-03-22T06:17:33;8.20;99.90
23335;DHT22;11839;48.598;8.870;2024-03-22T06:20:00;8.30;99.90
23335;DHT22;11839;48.598;8.870;2024-03-22T06:22:26;8.50;99.90
23335;DHT22;11839;48.598;8.870;2024-03-22T06:24:55;8.30;99.90
23335;DHT22;11839;48.598;8.870;2024-03-22T06:27:20;8.10;99.90
23335;DHT22;11839;48.598;8.870;2024-03-22T06:29:47;8.20;99.90
23335;DHT22;11839;48.598;8.870;2024-03-22T06:32:13;8.20;99.90
23335;DHT22;11839;48.598;8.870;2024-03-22T06:34:43;8.30;99.90
23335;DHT22;11839;48.598;8.870;2024-03-22T06:37:09;8.30;99.90
23335;DHT22;11839;48.598;8.870;2024-03-22T06:39:36;8.30;99.90
23335;DHT22;11839;48.598;8.870;2024-03-22T06:42:03;8.50;99.90
23335;DHT22;11839;48.598;8.870;2024-03-22T06:44:30;8.80;99.90
23335;DHT22;11839;48.598;8.870;2024-03-22T06:46:57;9.20;99.90
23335;DHT22;11839;48.598;8.870;2024-03-22T06:49:24;9.50;99.90
23335;DHT22;11839;48.598;8.870;2024-03-22T06:51:50;9.70;99.90
23335;DHT22;11839;48.598;8.870;2024-03-22T06:54:17;10.00;99.90
23335;DHT22;11839;48.598;8.870;2024-03-22T06:56:43;10.30;99.90
23335;DHT22;11839;48.598;8.870;2024-03-22T06:59:11;10.30;99.90
23335;DHT22;11839;48.598;8.870;2024-03-22T07:01:37;10.00;99.90
23335;DHT22;11839;48.598;8.870;2024-03-22T07:04:03;9.80;99.90
23335;DHT22;11839;48.598;8.870;2024-03-22T07:06:29;9.70;99.90
23335;DHT22;11839;48.598;8.870;2024-03-22T07:08:56;9.80;99.90
23335;DHT22;11839;48.598;8.870;2024-03-22T07:11:22;10.20;99.90
23335;DHT22;11839;48.598;8.870;2024-03-22T07:13:48;10.50;99.90
23335;DHT22;11839;48.598;8.870;2024-03-22T07:16:15;10.60;99.90
23335;DHT22;11839;48.598;8.870;2024-03-22T07:18:42;10.60;99.90
23335;DHT22;11839;48.598;8.870;2024-03-22T07:21:08;10.60;99.90
23335;DHT22;11839;48.598;8.870;2024-03-22T07:23:35;10.90;99.90
23335;DHT22;11839;48.598;8.870;2024-03-22T07:26:00;10.90;99.90
23335;DHT22;11839;48.598;8.870;2024-03-22T07:28:27;10.90;99.90
23335;DHT22;11839;48.598;8.870;2024-03-22T07:30:53;11.00;99.90
23335;DHT22;11839;48.598;8.870;2024-03-22T07:33:22;11.20;99.90
23335;DHT22;11839;48.598;8.870;2024-03-22T07:35:47;11.20;99.90
23335;DHT22;11839;48.598;8.870;2024-03-22T07:38:14;11.30;99.90
23335;DHT22;11839;48.598;8.870;2024-03-22T07:40:40;11.10;99.90
23335;DHT22;11839;48.598;8.870;2024-03-22T07:43:07;11.50;99.90
23335;DHT22;11839;48.598;8.870;2024-03-22T07:45:34;11.80;99.90
23335;DHT22;11839;48.598;8.870;2024-03-22T07:48:01;11.70;99.90
23335;DHT22;11839;48.598;8.870;2024-03-22T07:50:28;12.00;99.90
23335;DHT22;11839;48.598;8.870;2024-03-22T07:52:55;12.30;99.90
23335;DHT22;11839;48.598;8.870;2024-03-22T07:55:22;12.40;99.90
23335;DHT22;11839;48.598;8.870;2024-03-22T07:57:48;12.60;99.90
23335;DHT22;11839;48.598;8.870;2024-03-22T08:00:14;12.50;99.90
23335;DHT22;11839;48.598;8.870;2024-03-22T08:02:41;12.50;99.90
23335;DHT22;11839;48.598;8.870;2024-03-22T08:05:07;12.80;99.90
23335;DHT22;11839;48.598;8.870;2024-03-22T08:07:36;12.90;99.90
23335;DHT22;11839;48.598;8.870;2024-03-22T08:10:03;13.30;99.90
23335;DHT22;11839;48.598;8.870;2024-03-22T08:12:29;13.30;99.90
23335;DHT22;11839;48.598;8.870;2024-03-22T08:14:56;13.40;99.90
23335;DHT22;11839;48.598;8.870;2024-03-22T08:17:22;13.30;99.90
23335;DHT22;11839;48.598;8.870;2024-03-22T08:19:49;13.80;99.90
23335;DHT22;11839;48.598;8.870;2024-03-22T08:22:14;14.20;99.90
23335;DHT22;11839;48.598;8.870;2024-03-22T08:24:42;14.60;99.90
23335;DHT22;11839;48.598;8.870;2024-03-22T08:27:08;14.80;99.90
23335;DHT22;11839;48.598;8.870;2024-03-22T08:29:35;14.80;99.90
23335;DHT22;11839;48.598;8.870;2024-03-22T08:32:01;15.10;99.90
23335;DHT22;11839;48.598;8.870;2024-03-22T08:34:30;15.50;99.90
23335;DHT22;11839;48.598;8.870;2024-03-22T08:36:55;15.70;99.90
23335;DHT22;11839;48.598;8.870;2024-03-22T08:39:22;15.60;99.90
23335;DHT22;11839;48.598;8.870;2024-03-22T08:41:51;15.20;99.90
23335;DHT22;11839;48.598;8.870;2024-03-22T08:44:18;15.00;99.90
23335;DHT22;11839;48.598;8.870;2024-03-22T08:46:43;15.20;99.90
23335;DHT22;11839;48.598;8.870;2024-03-22T08:49:11;15.60;99.90
23335;DHT22;11839;48.598;8.870;2024-03-22T08:51:37;15.70;99.90
23335;DHT22;11839;48.598;8.870;2024-03-22T08:54:04;15.80;99.90
23335;DHT22;11839;48.598;8.870;2024-03-22T08:56:30;16.00;99.90
23335;DHT22;11839;48.598;8.870;2024-03-22T08:58:58;16.10;99.90
23335;DHT22;11839;48.598;8.870;2024-03-22T09:01:24;15.80;99.90
23335;DHT22;11839;48.598;8.870;2024-03-22T09:03:52;15.60;99.90
23335;DHT22;11839;48.598;8.870;2024-03-22T09:06:18;16.00;99.90
23335;DHT22;11839;48.598;8.870;2024-03-22T09:08:45;16.40;99.90
23335;DHT22;11839;48.598;8.870;2024-03-22T09:11:11;16.40;99.90
23335;DHT22;11839;48.598;8.870;2024-03-22T09:13:38;16.60;99.90
23335;DHT22;11839;48.598;8.870;2024-03-22T09:16:05;17.00;99.90
23335;DHT22;11839;48.598;8.870;2024-03-22T09:18:32;17.30;99.90
23335;DHT22;11839;48.598;8.870;2024-03-22T09:20:58;17.60;99.90
23335;DHT22;11839;48.598;8.870;2024-03-22T09:23:25;18.10;99.90
23335;DHT22;11839;48.598;8.870;2024-03-22T09:25:51;18.40;99.90
23335;DHT22;11839;48.598;8.870;2024-03-22T09:28:17;18.40;99.90
23335;DHT22;11839;48.598;8.870;2024-03-22T09:30:43;18.10;99.90
23335;DHT22;11839;48.598;8.870;2024-03-22T09:33:11;17.90;99.90
23335;DHT22;11839;48.598;8.870;2024-03-22T09:35:37;18.20;99.90
23335;DHT22;11839;48.598;8.870;2024-03-22T09:38:04;17.90;99.90
23335;DHT22;11839;48.598;8.870;2024-03-22T09:40:30;17.90;99.90
23335;DHT22;11839;48.598;8.870;2024-03-22T09:43:01;18.20;99.90
23335;DHT22;11839;48.598;8.870;2024-03-22T09:45:28;18.90;99.90
23335;DHT22;11839;48.598;8.870;2024-03-22T09:47:56;18.80;99.90
23335;DHT22;11839;48.598;8.870;2024-03-22T09:50:24;18.40;99.90
23335;DHT22;11839;48.598;8.870;2024-03-22T09:52:52;17.70;99.90
23335;DHT22;11839;48.598;8.870;2024-03-22T09:55:19;17.80;99.90
23335;DHT22;11839;48.598;8.870;2024-03-22T09:57:49;18.60;99.90
23335;DHT22;11839;48.598;8.870;2024-03-22T10:00:17;18.80;99.90
23335;DHT22;11839;48.598;8.870;2024-03-22T10:02:46;18.80;99.90
23335;DHT22;11839;48.598;8.870;2024-03-22T10:05:15;19.10;99.90
23335;DHT22;11839;48.598;8.870;2024-03-22T10:07:45;19.20;99.90
23335;DHT22;11839;48.598;8.870;2024-03-22T10:10:10;19.50;99.90
23335;DHT22;11839;48.598;8.870;2024-03-22T10:12:37;19.30;99.90
23335;DHT22;11839;48.598;8.870;2024-03-22T10:15:05;19.20;99.90
23335;DHT22;11839;48.598;8.870;2024-03-22T10:17:34;19.20;99.90
23335;DHT22;11839;48.598;8.870;2024-03-22T10:20:00;19.30;99.90
23335;DHT22;11839;48.598;8.870;2024-03-22T10:22:27;19.60;99.90
23335;DHT22;11839;48.598;8.870;2024-03-22T10:24:54;19.70;99.90
23335;DHT22;11839;48.598;8.870;2024-03-22T10:27:26;19.50;99.90
23335;DHT22;11839;48.598;8.870;2024-03-22T10:29:52;19.80;99.90
23335;DHT22;11839;48.598;8.870;2024-03-22T10:32:19;19.50;99.90
23335;DHT22;11839;48.598;8.870;2024-03-22T10:34:45;19.80;99.90
23335;DHT22;11839;48.598;8.870;2024-03-22T10:37:14;19.60;99.90
23335;DHT22;11839;48.598;8.870;2024-03-22T10:39:42;20.10;99.90
23335;DHT22;11839;48.598;8.870;2024-03-22T10:42:10;19.30;99.90
23335;DHT22;11839;48.598;8.870;2024-03-22T10:44:36;19.70;99.90
23335;DHT22;11839;48.598;8.870;2024-03-22T10:47:04;19.90;99.90
23335;DHT22;11839;48.598;8.870;2024-03-22T10:49:36;20.00;99.90
23335;DHT22;11839;48.598;8.870;2024-03-22T10:52:07;20.30;99.90
23335;DHT22;11839;48.598;8.870;2024-03-22T10:54:38;20.10;99.90
23335;DHT22;11839;48.598;8.870;2024-03-22T10:57:05;20.30;99.90
23335;DHT22;11839;48.598;8.870;2024-03-22T10:59:35;20.40;99.90
23335;DHT22;11839;48.598;8.870;2024-03-22T11:02:03;20.50;99.90
23335;DHT22;11839;48.598;8.870;2024-03-22T11:04:30;20.70;99.90
23335;DHT22;11839;48.598;8.870;2024-03-22T11:06:57;20.70;99.90
23335;DHT22;11839;48.598;8.870;2024-03-22T11:09:25;20.00;99.90
23335;DHT22;11839;48.598;8.870;2024-03-22T11:11:52;19.90;99.90
23335;DHT22;11839;48.598;8.870;2024-03-22T11:14:19;19.90;99.90
23335;DHT22;11839;48.598;8.870;2024-03-22T11:16:47;19.80;99.90
23335;DHT22;11839;48.598;8.870;2024-03-22T11:19:14;19.30;99.90
23335;DHT22;11839;48.598;8.870;2024-03-22T11:21:39;19.20;99.90
23335;DHT22;11839;48.598;8.870;2024-03-22T11:24:06;20.00;99.90
23335;DHT22;11839;48.598;8.870;2024-03-22T11:26:32;20.30;99.90
23335;DHT22;11839;48.598;8.870;2024-03-22T11:29:01;20.30;99.90
23335;DHT22;11839;48.598;8.870;2024-03-22T11:31:27;20.50;99.90
23335;DHT22;11839;48.598;8.870;2024-03-22T11:33:56;20.90;99.90
23335;DHT22;11839;48.598;8.870;2024-03-22T11:36:22;21.10;99.90
23335;DHT22;11839;48.598;8.870;2024-03-22T11:38:49;21.00;99.90
23335;DHT22;11839;48.598;8.870;2024-03-22T11:41:16;21.20;99.90
23335;DHT22;11839;48.598;8.870;2024-03-22T11:43:45;20.90;99.90
23335;DHT22;11839;48.598;8.870;2024-03-22T11:46:11;20.80;99.90
23335;DHT22;11839;48.598;8.870;2024-03-22T11:48:39;20.70;99.90
23335;DHT22;11839;48.598;8.870;2024-03-22T11:51:07;20.70;99.90
23335;DHT22;11839;48.598;8.870;2024-03-22T11:53:34;20.40;99.90
23335;DHT22;11839;48.598;8.870;2024-03-22T11:56:00;20.70;99.90
23335;DHT22;11839;48.598;8.870;2024-03-22T11:58:29;21.40;99.90
23335;DHT22;11839;48.598;8.870;2024-03-22T12:00:55;21.30;99.90
23335;DHT22;11839;48.598;8.870;2024-03-22T12:03:22;21.00;99.90
23335;DHT22;11839;48.598;8.870;2024-03-22T12:05:48;21.10;99.90
23335;DHT22;11839;48.598;8.870;2024-03-22T12:08:18;21.20;99.90
23335;DHT22;11839;48.598;8.870;2024-03-22T12:10:44;21.50;99.90
23335;DHT22;11839;48.598;8.870;2024-03-22T12:13:11;21.80;99.90
23335;DHT22;11839;48.598;8.870;2024-03-22T12:15:37;21.50;99.90
23335;DHT22;11839;48.598;8.870;2024-03-22T12:18:04;21.70;99.90
23335;DHT22;11839;48.598;8.870;2024-03-22T12:20:30;22.00;99.90
23335;DHT22;11839;48.598;8.870;2024-03-22T12:22:56;22.00;99.90
23335;DHT22;11839;48.598;8.870;2024-03-22T12:25:24;22.20;99.90
23335;DHT22;11839;48.598;8.870;2024-03-22T12:27:51;22.50;99.90
23335;DHT22;11839;48.598;8.870;2024-03-22T12:30:17;22.70;99.90
23335;DHT22;11839;48.598;8.870;2024-03-22T12:32:44;22.80;99.90
23335;DHT22;11839;48.598;8.870;2024-03-22T12:35:09;23.20;99.90
23335;DHT22;11839;48.598;8.870;2024-03-22T12:37:36;22.90;99.40
23335;DHT22;11839;48.598;8.870;2024-03-22T12:40:02;22.40;99.90
23335;DHT22;11839;48.598;8.870;2024-03-22T12:42:30;22.10;99.50
23335;DHT22;11839;48.598;8.870;2024-03-22T12:44:56;22.10;98.90
23335;DHT22;11839;48.598;8.870;2024-03-22T12:47:23;22.50;98.30
23335;DHT22;11839;48.598;8.870;2024-03-22T12:49:49;22.40;98.20
23335;DHT22;11839;48.598;8.870;2024-03-22T12:52:15;22.10;98.60
23335;DHT22;11839;48.598;8.870;2024-03-22T12:54:41;22.10;98.40
23335;DHT22;11839;48.598;8.870;2024-03-22T12:57:12;22.10;98.00
23335;DHT22;11839;48.598;8.870;2024-03-22T12:59:39;22.40;96.90
23335;DHT22;11839;48.598;8.870;2024-03-22T13:02:08;22.70;96.30
23335;DHT22;11839;48.598;8.870;2024-03-22T13:04:34;22.80;95.20
23335;DHT22;11839;48.598;8.870;2024-03-22T13:07:02;22.80;95.40
23335;DHT22;11839;48.598;8.870;2024-03-22T13:09:28;22.80;95.10
23335;DHT22;11839;48.598;8.870;2024-03-22T13:11:55;22.60;95.60
23335;DHT22;11839;48.598;8.870;2024-03-22T13:14:20;22.60;95.40
23335;DHT22;11839;48.598;8.870;2024-03-22T13:16:48;22.70;95.70
23335;DHT22;11839;48.598;8.870;2024-03-22T13:19:14;22.50;94.40
23335;DHT22;11839;48.598;8.870;2024-03-22T13:21:43;23.00;93.50
23335;DHT22;11839;48.598;8.870;2024-03-22T13:24:13;22.80;90.80
23335;DHT22;11839;48.598;8.870;2024-03-22T13:26:40;23.60;91.40
23335;DHT22;11839;48.598;8.870;2024-03-22T13:29:06;23.80;91.80
23335;DHT22;11839;48.598;8.870;2024-03-22T13:31:33;23.60;90.00
23335;DHT22;11839;48.598;8.870;2024-03-22T13:34:00;23.70;85.20
23335;DHT22;11839;48.598;8.870;2024-03-22T13:36:26;23.60;87.40
23335;DHT22;11839;48.598;8.870;2024-03-22T13:38:52;23.30;85.10
23335;DHT22;11839;48.598;8.870;2024-03-22T13:41:19;22.90;83.70
23335;DHT22;11839;48.598;8.870;2024-03-22T13:43:45;23.00;82.80
23335;DHT22;11839;48.598;8.870;2024-03-22T13:46:11;22.60;83.30
23335;DHT22;11839;48.598;8.870;2024-03-22T13:48:40;22.80;78.80
23335;DHT22;11839;48.598;8.870;2024-03-22T13:51:08;22.70;77.60
23335;DHT22;11839;48.598;8.870;2024-03-22T13:53:36;22.90;75.80
23335;DHT22;11839;48.598;8.870;2024-03-22T13:56:03;23.00;71.90
23335;DHT22;11839;48.598;8.870;2024-03-22T13:58:29;23.00;73.10
23335;DHT22;11839;48.598;8.870;2024-03-22T14:00:55;23.10;72.60
23335;DHT22;11839;48.598;8.870;2024-03-22T14:03:21;22.60;74.10
23335;DHT22;11839;48.598;8.870;2024-03-22T14:05:48;22.70;76.70
23335;DHT22;11839;48.598;8.870;2024-03-22T14:08:15;22.50;77.80
23335;DHT22;11839;48.598;8.870;2024-03-22T14:10:42;22.20;78.00
23335;DHT22;11839;48.598;8.870;2024-03-22T14:13:08;22.60;78.80
23335;DHT22;11839;48.598;8.870;2024-03-22T14:15:35;22.80;78.40
23335;DHT22;11839;48.598;8.870;2024-03-22T14:18:01;22.90;79.70
23335;DHT22;11839;48.598;8.870;2024-03-22T14:20:28;22.80;79.50
23335;DHT22;11839;48.598;8.870;2024-03-22T14:22:55;22.80;79.40
23335;DHT22;11839;48.598;8.870;2024-03-22T14:25:23;22.30;77.80
23335;DHT22;11839;48.598;8.870;2024-03-22T14:27:49;22.20;79.30
23335;DHT22;11839;48.598;8.870;2024-03-22T14:30:15;22.10;78.40
23335;DHT22;11839;48.598;8.870;2024-03-22T14:32:41;22.50;79.10
23335;DHT22;11839;48.598;8.870;2024-03-22T14:35:07;22.90;77.20
23335;DHT22;11839;48.598;8.870;2024-03-22T14:37:35;22.80;76.50
23335;DHT22;11839;48.598;8.870;2024-03-22T14:40:00;23.10;76.90
23335;DHT22;11839;48.598;8.870;2024-03-22T14:42:31;23.10;77.90
23335;DHT22;11839;48.598;8.870;2024-03-22T14:44:57;22.80;77.80
23335;DHT22;11839;48.598;8.870;2024-03-22T14:47:24;22.40;75.90
23335;DHT22;11839;48.598;8.870;2024-03-22T14:49:50;22.00;76.80
23335;DHT22;11839;48.598;8.870;2024-03-22T14:52:17;22.10;77.40
23335;DHT22;11839;48.598;8.870;2024-03-22T14:54:43;22.30;77.30
23335;DHT22;11839;48.598;8.870;2024-03-22T14:57:10;22.30;77.40
23335;DHT22;11839;48.598;8.870;2024-03-22T14:59:37;22.00;77.90
23335;DHT22;11839;48.598;8.870;2024-03-22T15:02:04;22.40;77.40
23335;DHT22;11839;48.598;8.870;2024-03-22T15:04:30;21.80;77.60
23335;DHT22;11839;48.598;8.870;2024-03-22T15:06:57;21.50;76.00
23335;DHT22;11839;48.598;8.870;2024-03-22T15:09:23;21.40;75.80
23335;DHT22;11839;48.598;8.870;2024-03-22T15:11:50;21.20;75.40
23335;DHT22;11839;48.598;8.870;2024-03-22T15:14:16;21.00;76.30
23335;DHT22;11839;48.598;8.870;2024-03-22T15:16:44;21.00;78.00
23335;DHT22;11839;48.598;8.870;2024-03-22T15:19:10;21.20;76.50
23335;DHT22;11839;48.598;8.870;2024-03-22T15:21:37;21.20;77.20
23335;DHT22;11839;48.598;8.870;2024-03-22T15:24:03;21.20;77.10
23335;DHT22;11839;48.598;8.870;2024-03-22T15:26:31;20.90;77.90
23335;DHT22;11839;48.598;8.870;2024-03-22T15:28:58;21.10;78.00
23335;DHT22;11839;48.598;8.870;2024-03-22T15:31:23;21.30;79.10